Mc Knightstown, Pennsylvania
Current Conditions -  °F | °C
As of 12:53 AM on Sunday 21 Dec 2014 (Local Time) from KRYT Reporting Station
Overcast Overcast  
Wind Chill: 28°   Ceiling: 7500
Heat Index: 28°   Visibility: 9mi
Dew Point: 23°   Wind: 0mph
Humidity: 81%   Direction: NA
Pressure: 30.24"   Gusts: NA
Location:  39.8752°N, 77.3219°W
Report Text: KRYT 210553Z AUTO 00000KT 9SM BKN075 OVC100 M02/M05 A3024 RMK AO2 SLP258 T10221050 11006 21022 58001 $
Loading
Personal Weather Stations






























Interactive Weather Map New forecast layout! Learn more

10-Day Weather Forecast

Advertisements
Track Severe Weather on mobile